createdAt,value
2023-10-09T00:01:47.468Z,56.95
2023-10-09T00:04:17.751Z,56.69
2023-10-09T00:06:45.150Z,56.73
2023-10-09T00:09:23.840Z,56.62
2023-10-09T00:11:57.580Z,56.61
2023-10-09T00:14:26.110Z,56.49
2023-10-09T00:17:11.842Z,56.50
2023-10-09T00:19:38.492Z,56.66
2023-10-09T00:22:25.346Z,56.56
2023-10-09T00:25:10.856Z,56.54
2023-10-09T00:27:42.390Z,56.64
2023-10-09T00:30:20.159Z,56.36
2023-10-09T00:33:00.965Z,56.09
2023-10-09T00:35:38.245Z,56.29
2023-10-09T00:38:32.459Z,56.32
2023-10-09T00:41:06.539Z,56.30
2023-10-09T00:43:36.526Z,55.98
2023-10-09T00:46:05.618Z,56.04
2023-10-09T00:48:38.054Z,55.83
2023-10-09T00:51:22.933Z,56.08
2023-10-09T00:54:00.708Z,55.81
2023-10-09T00:56:28.513Z,55.83
2023-10-09T00:59:15.883Z,55.84
2023-10-09T01:01:57.535Z,55.85
2023-10-09T01:04:26.860Z,55.91
2023-10-09T01:07:12.274Z,55.51
2023-10-09T01:09:39.392Z,55.53
2023-10-09T01:12:06.700Z,55.41
2023-10-09T01:14:42.353Z,55.64
2023-10-09T01:17:10.227Z,55.40
2023-10-09T01:19:37.604Z,55.47
2023-10-09T01:22:14.529Z,55.25
2023-10-09T01:24:41.869Z,55.28
2023-10-09T01:27:17.790Z,55.30
2023-10-09T01:29:47.377Z,54.99
2023-10-09T01:32:21.079Z,55.26
2023-10-09T01:34:51.170Z,55.31
2023-10-09T01:37:20.805Z,54.95
2023-10-09T01:39:52.108Z,55.06
2023-10-09T01:42:29.203Z,54.99
2023-10-09T01:44:56.847Z,54.92
2023-10-09T01:47:23.459Z,54.86
2023-10-09T01:49:54.755Z,55.04
2023-10-09T01:52:21.839Z,54.84
2023-10-09T01:54:52.714Z,54.80
2023-10-09T01:57:24.525Z,54.70
2023-10-09T01:59:54.525Z,54.76
2023-10-09T02:02:29.067Z,54.76
2023-10-09T02:05:14.188Z,54.96
2023-10-09T02:07:53.615Z,54.66
2023-10-09T02:10:30.587Z,54.57
2023-10-09T02:12:59.449Z,54.34
2023-10-09T02:15:45.818Z,54.54
2023-10-09T02:18:26.180Z,54.35
2023-10-09T02:21:00.419Z,54.48
2023-10-09T02:23:41.374Z,54.34
2023-10-09T02:26:18.714Z,54.33
2023-10-09T02:28:45.505Z,54.44
2023-10-09T02:31:13.739Z,54.24
2023-10-09T02:33:40.915Z,54.25
2023-10-09T02:36:08.344Z,54.40
2023-10-09T02:38:41.804Z,54.33
2023-10-09T02:41:14.321Z,54.45
2023-10-09T02:43:47.674Z,54.46
2023-10-09T02:46:36.052Z,54.41
2023-10-09T02:49:07.415Z,54.00
2023-10-09T02:51:34.276Z,54.08
2023-10-09T02:54:20.653Z,54.19
2023-10-09T02:57:11.427Z,54.18
2023-10-09T02:59:42.591Z,53.82
2023-10-09T03:02:09.537Z,53.78
2023-10-09T03:04:36.149Z,54.03
2023-10-09T03:07:04.823Z,53.88
2023-10-09T03:09:33.182Z,53.77
2023-10-09T03:12:05.052Z,53.88
2023-10-09T03:14:39.228Z,53.88
2023-10-09T03:17:12.497Z,54.16
2023-10-09T03:19:40.012Z,53.86
2023-10-09T03:22:11.998Z,53.74
2023-10-09T03:24:48.922Z,53.73
2023-10-09T03:27:18.218Z,53.69
2023-10-09T03:29:50.744Z,53.65
2023-10-09T03:32:17.383Z,53.75
2023-10-09T03:34:44.894Z,53.59
2023-10-09T03:37:23.327Z,53.66
2023-10-09T03:39:52.838Z,53.29
2023-10-09T03:42:23.745Z,53.52
2023-10-09T03:44:54.877Z,53.85
2023-10-09T03:47:23.872Z,54.06
2023-10-09T03:49:52.769Z,53.68
2023-10-09T03:52:20.318Z,53.72
2023-10-09T03:54:50.754Z,53.62
2023-10-09T03:57:21.414Z,53.95
2023-10-09T03:59:48.232Z,53.79
2023-10-09T04:02:17.248Z,53.52
2023-10-09T04:04:48.653Z,53.67
2023-10-09T04:07:18.704Z,53.56
2023-10-09T04:09:55.320Z,53.84
2023-10-09T04:12:22.524Z,53.72
2023-10-09T04:14:56.416Z,53.76
2023-10-09T04:17:36.336Z,53.72
2023-10-09T04:20:16.675Z,53.68
2023-10-09T04:22:52.464Z,53.90
2023-10-09T04:25:30.423Z,53.63
2023-10-09T04:28:19.119Z,53.84
2023-10-09T04:30:56.614Z,53.70
2023-10-09T04:33:44.453Z,53.77
2023-10-09T04:36:31.488Z,53.75
2023-10-09T04:39:07.033Z,53.49
2023-10-09T04:41:52.292Z,53.72
2023-10-09T04:44:20.796Z,53.63
2023-10-09T04:47:07.529Z,53.66
2023-10-09T04:49:49.942Z,53.51
2023-10-09T04:52:27.027Z,53.34
2023-10-09T04:55:08.960Z,53.36
2023-10-09T04:57:45.935Z,53.26
2023-10-09T05:00:43.701Z,53.51
2023-10-09T05:03:13.951Z,53.40
2023-10-09T05:05:44.711Z,53.11
2023-10-09T05:08:28.234Z,53.11
2023-10-09T05:11:00.034Z,52.99
2023-10-09T05:13:43.135Z,53.46
2023-10-09T05:16:16.532Z,53.44
2023-10-09T05:18:46.156Z,53.00
2023-10-09T05:21:45.573Z,53.24
2023-10-09T05:24:13.525Z,53.15
2023-10-09T05:26:48.433Z,53.20
2023-10-09T05:29:33.873Z,52.85
2023-10-09T05:32:01.917Z,53.21
2023-10-09T05:34:35.142Z,52.86
2023-10-09T05:37:18.934Z,52.74
2023-10-09T05:39:59.358Z,52.86
2023-10-09T05:42:43.852Z,52.92
2023-10-09T05:45:19.672Z,53.16
2023-10-09T05:48:05.016Z,52.91
2023-10-09T05:50:35.496Z,52.84
2023-10-09T05:53:03.334Z,52.79
2023-10-09T05:55:48.721Z,52.80
2023-10-09T05:58:34.284Z,52.91
2023-10-09T06:01:26.618Z,52.77
2023-10-09T06:03:56.133Z,53.03
2023-10-09T06:06:35.248Z,52.89
2023-10-09T06:09:16.995Z,52.82
2023-10-09T06:11:51.156Z,52.78
2023-10-09T06:14:47.269Z,53.08
2023-10-09T06:17:24.455Z,52.96
2023-10-09T06:19:59.690Z,53.02
2023-10-09T06:22:44.912Z,52.97
2023-10-09T06:25:12.770Z,53.12
2023-10-09T06:27:48.149Z,52.91
2023-10-09T06:30:20.556Z,53.25
2023-10-09T06:32:59.449Z,53.14
2023-10-09T06:35:32.468Z,52.94
2023-10-09T06:38:03.423Z,53.30
2023-10-09T06:40:49.256Z,53.28
2023-10-09T06:43:18.639Z,53.43
2023-10-09T06:45:45.750Z,53.08
2023-10-09T06:48:37.401Z,53.20
2023-10-09T06:51:13.967Z,53.18
2023-10-09T06:54:07.629Z,53.24
2023-10-09T06:56:34.780Z,53.35
2023-10-09T06:59:14.980Z,53.13
2023-10-09T07:01:45.138Z,53.26
2023-10-09T07:04:20.817Z,53.25
2023-10-09T07:06:52.185Z,53.47
2023-10-09T07:09:22.559Z,53.34
2023-10-09T07:11:53.406Z,53.45
2023-10-09T07:14:33.481Z,53.54
2023-10-09T07:17:29.104Z,53.44
2023-10-09T07:19:55.789Z,53.45
2023-10-09T07:22:22.933Z,53.79
2023-10-09T07:25:14.877Z,53.62
2023-10-09T07:27:52.728Z,53.77
2023-10-09T07:30:32.989Z,53.78
2023-10-09T07:33:14.169Z,53.66
2023-10-09T07:35:45.564Z,53.58
2023-10-09T07:38:36.685Z,53.58
2023-10-09T07:41:07.613Z,53.64
2023-10-09T07:43:41.293Z,53.83
2023-10-09T07:46:27.394Z,53.66
2023-10-09T07:48:54.806Z,53.74
2023-10-09T07:51:32.063Z,53.91
2023-10-09T07:54:09.761Z,53.84
2023-10-09T07:56:54.424Z,53.95
2023-10-09T07:59:21.002Z,53.71
2023-10-09T08:01:56.129Z,54.00
2023-10-09T08:04:39.626Z,54.08
2023-10-09T08:08:05.488Z,53.92
2023-10-09T08:10:14.339Z,53.96
2023-10-09T08:12:50.454Z,53.78
2023-10-09T08:15:21.280Z,53.88
2023-10-09T08:18:00.630Z,54.11
2023-10-09T08:20:29.428Z,53.95
2023-10-09T08:22:59.512Z,53.56
2023-10-09T08:25:29.161Z,53.96
2023-10-09T08:28:20.752Z,53.84
2023-10-09T08:31:03.813Z,54.07
2023-10-09T08:36:16.474Z,53.95
2023-10-09T08:38:43.322Z,53.81
2023-10-09T08:41:18.823Z,54.11
2023-10-09T08:43:52.121Z,53.96
2023-10-09T08:46:30.046Z,53.71
2023-10-09T08:48:58.163Z,53.61
2023-10-09T08:51:29.356Z,53.89
2023-10-09T08:53:57.258Z,53.88
2023-10-09T08:56:24.587Z,54.43
2023-10-09T08:58:56.961Z,53.94
2023-10-09T09:01:26.309Z,53.89
2023-10-09T09:03:56.872Z,53.76
2023-10-09T09:06:24.344Z,53.88
2023-10-09T09:08:56.464Z,53.84
2023-10-09T09:11:26.391Z,53.65
2023-10-09T09:14:30.419Z,53.92
2023-10-09T09:16:57.154Z,53.87
2023-10-09T09:19:33.415Z,53.84
2023-10-09T09:22:00.642Z,53.66
2023-10-09T09:24:27.337Z,53.57
2023-10-09T09:27:01.937Z,53.75
2023-10-09T09:29:37.671Z,53.56
2023-10-09T09:32:19.005Z,53.74
2023-10-09T09:34:50.967Z,53.57
2023-10-09T09:37:31.999Z,53.43
2023-10-09T09:40:01.698Z,53.38
2023-10-09T09:42:32.682Z,53.24
2023-10-09T09:45:01.795Z,53.43
2023-10-09T09:47:28.939Z,53.58
2023-10-09T09:50:13.796Z,53.59
2023-10-09T09:52:40.987Z,53.62
2023-10-09T09:55:18.946Z,53.87
2023-10-09T09:57:52.959Z,53.46
2023-10-09T10:00:43.899Z,53.66
2023-10-09T10:03:15.899Z,53.40
2023-10-09T10:05:47.529Z,53.51
2023-10-09T10:08:21.330Z,53.48
2023-10-09T10:10:58.545Z,53.40
2023-10-09T10:13:50.003Z,53.29
2023-10-09T10:16:19.950Z,53.16
2023-10-09T10:19:08.726Z,53.49
2023-10-09T10:21:42.416Z,53.26
2023-10-09T10:24:30.253Z,53.38
2023-10-09T10:27:19.333Z,53.27
2023-10-09T10:29:51.411Z,53.11
2023-10-09T10:32:19.514Z,53.04
2023-10-09T10:35:07.553Z,53.06
2023-10-09T10:37:40.738Z,52.99
2023-10-09T10:40:14.969Z,53.27
2023-10-09T10:43:10.828Z,53.18
2023-10-09T10:45:39.511Z,53.28
2023-10-09T10:48:11.078Z,53.36
2023-10-09T10:50:38.762Z,53.25
2023-10-09T10:53:17.202Z,53.14
2023-10-09T10:56:15.597Z,53.16
2023-10-09T10:58:55.159Z,53.10
2023-10-09T11:01:27.220Z,52.83
2023-10-09T11:03:56.800Z,53.20
2023-10-09T11:06:38.116Z,53.04
2023-10-09T11:09:46.690Z,53.18
2023-10-09T11:12:25.132Z,53.31
2023-10-09T11:15:07.679Z,53.05
2023-10-09T11:17:36.797Z,53.29
2023-10-09T11:20:23.568Z,53.20
2023-10-09T11:23:12.008Z,53.08
2023-10-09T11:25:51.813Z,53.03
2023-10-09T11:28:31.378Z,52.95
2023-10-09T11:31:16.706Z,53.11
2023-10-09T11:33:52.473Z,53.21
2023-10-09T11:36:32.703Z,53.53
2023-10-09T11:39:17.699Z,53.23
2023-10-09T11:41:45.425Z,53.41
2023-10-09T11:44:35.028Z,53.36
2023-10-09T11:47:20.891Z,53.28
2023-10-09T11:50:01.586Z,53.02
2023-10-09T11:52:57.557Z,53.18
2023-10-09T11:55:26.374Z,53.86
2023-10-09T11:57:52.934Z,53.45
2023-10-09T12:00:32.040Z,53.32
2023-10-09T12:03:06.227Z,53.59
2023-10-09T12:05:34.907Z,53.55
2023-10-09T12:08:02.958Z,53.48
2023-10-09T12:10:31.031Z,53.30
2023-10-09T12:13:00.427Z,53.25
2023-10-09T12:15:37.920Z,53.34
2023-10-09T12:18:16.146Z,53.49
2023-10-09T12:20:48.860Z,54.24
2023-10-09T12:23:16.064Z,53.78
2023-10-09T12:25:46.003Z,53.54
2023-10-09T12:28:16.107Z,53.46
2023-10-09T12:30:42.878Z,53.38
2023-10-09T12:33:10.117Z,53.50
2023-10-09T12:35:40.876Z,53.36
2023-10-09T12:38:11.394Z,53.63
2023-10-09T12:40:39.553Z,53.58
2023-10-09T12:43:06.675Z,53.79
2023-10-09T12:45:35.631Z,53.64
2023-10-09T12:48:04.695Z,53.66
2023-10-09T12:50:34.893Z,53.76
2023-10-09T12:53:08.523Z,53.73
2023-10-09T12:55:41.716Z,53.47
2023-10-09T12:58:10.585Z,53.69
2023-10-09T13:00:39.330Z,53.92
2023-10-09T13:03:17.685Z,53.74
2023-10-09T13:05:56.115Z,53.81
2023-10-09T13:08:36.509Z,53.68
2023-10-09T13:11:11.847Z,53.65
2023-10-09T13:13:52.177Z,53.59
2023-10-09T13:16:26.995Z,53.67
2023-10-09T13:18:57.800Z,53.74
2023-10-09T13:21:27.485Z,53.59
2023-10-09T13:23:58.722Z,53.67
2023-10-09T13:26:34.709Z,53.89
2023-10-09T13:29:04.855Z,54.42
2023-10-09T13:31:36.385Z,54.15
2023-10-09T13:34:12.481Z,53.73
2023-10-09T13:36:39.200Z,53.73
2023-10-09T13:39:26.325Z,53.86
2023-10-09T13:42:01.212Z,54.15
2023-10-09T13:44:29.692Z,55.27
2023-10-09T13:46:57.700Z,55.35
2023-10-09T13:49:30.832Z,54.67
2023-10-09T13:51:58.008Z,54.27
2023-10-09T13:54:33.575Z,54.46
2023-10-09T13:57:07.558Z,54.25
2023-10-09T13:59:43.638Z,54.35
2023-10-09T14:02:11.417Z,54.54
2023-10-09T14:04:38.603Z,54.53
2023-10-09T14:07:07.282Z,54.48
2023-10-09T14:09:40.018Z,54.55
2023-10-09T14:12:08.759Z,54.59
2023-10-09T14:14:39.528Z,54.32
2023-10-09T14:17:13.522Z,54.34
2023-10-09T14:19:49.951Z,55.83
2023-10-09T14:22:18.070Z,54.74
2023-10-09T14:24:49.552Z,54.85
2023-10-09T14:27:18.937Z,54.50
2023-10-09T14:29:49.591Z,54.50
2023-10-09T14:32:17.480Z,54.31
2023-10-09T14:34:51.648Z,54.31
2023-10-09T14:37:20.408Z,54.38
2023-10-09T14:39:50.186Z,54.26
2023-10-09T14:42:17.778Z,55.78
2023-10-09T14:44:48.842Z,54.97
2023-10-09T14:47:15.894Z,54.81
2023-10-09T14:49:48.024Z,54.93
2023-10-09T14:52:18.084Z,54.79
2023-10-09T14:54:47.656Z,55.27
2023-10-09T14:57:15.032Z,55.20
2023-10-09T14:59:44.338Z,54.92
2023-10-09T15:02:13.531Z,54.85
2023-10-09T15:04:40.990Z,54.61
2023-10-09T15:07:08.442Z,55.22
2023-10-09T15:09:37.938Z,54.62
2023-10-09T15:12:08.865Z,54.63
2023-10-09T15:14:35.901Z,54.59
2023-10-09T15:17:04.131Z,55.44
2023-10-09T15:19:31.182Z,54.98
2023-10-09T15:21:59.999Z,54.94
2023-10-09T15:24:28.990Z,54.86
2023-10-09T15:26:58.883Z,55.00
2023-10-09T15:29:29.762Z,54.74
2023-10-09T15:31:57.277Z,54.81
2023-10-09T15:34:25.829Z,54.81
2023-10-09T15:36:54.635Z,54.96
2023-10-09T15:39:22.617Z,54.84
2023-10-09T15:41:49.979Z,54.92
2023-10-09T15:44:17.829Z,55.04
2023-10-09T15:46:48.126Z,54.87
2023-10-09T15:49:17.538Z,54.82
2023-10-09T15:51:44.842Z,54.60
2023-10-09T15:54:13.684Z,54.81
2023-10-09T15:56:46.054Z,54.11
2023-10-09T15:59:18.052Z,53.87
2023-10-09T16:01:45.178Z,53.69
2023-10-09T16:04:12.217Z,54.39
2023-10-09T16:06:42.546Z,54.42
2023-10-09T16:09:12.890Z,54.34
2023-10-09T16:11:40.954Z,54.19
2023-10-09T16:14:10.854Z,54.15
2023-10-09T16:16:45.988Z,54.22
2023-10-09T16:19:13.509Z,53.97
2023-10-09T16:21:40.804Z,53.84
2023-10-09T16:24:10.561Z,53.40
2023-10-09T16:26:46.527Z,53.66
2023-10-09T16:29:13.656Z,53.77
2023-10-09T16:31:42.048Z,53.76
2023-10-09T16:34:09.891Z,53.78
2023-10-09T16:36:39.561Z,53.60
2023-10-09T16:39:06.386Z,53.76
2023-10-09T16:41:41.176Z,53.86
2023-10-09T16:44:11.275Z,53.57
2023-10-09T16:46:40.947Z,53.81
2023-10-09T16:49:09.704Z,53.75
2023-10-09T16:51:36.618Z,53.42
2023-10-09T16:54:04.270Z,53.76
2023-10-09T16:56:34.629Z,53.63
2023-10-09T16:59:01.857Z,53.72
2023-10-09T17:01:29.064Z,53.55
2023-10-09T17:03:58.919Z,53.82
2023-10-09T17:06:30.184Z,53.84
2023-10-09T17:08:58.297Z,53.72
2023-10-09T17:11:25.881Z,53.79
2023-10-09T17:13:55.867Z,53.74
2023-10-09T17:16:25.036Z,53.84
2023-10-09T17:18:57.352Z,53.76
2023-10-09T17:21:24.557Z,54.06
2023-10-09T17:23:54.361Z,54.23
2023-10-09T17:26:23.811Z,54.27
2023-10-09T17:28:54.690Z,54.45
2023-10-09T17:31:24.740Z,54.38
2023-10-09T17:33:55.027Z,54.41
2023-10-09T17:36:22.585Z,54.44
2023-10-09T17:38:52.683Z,54.71
2023-10-09T17:41:22.429Z,54.50
2023-10-09T17:43:51.534Z,54.85
2023-10-09T17:46:19.134Z,54.67
2023-10-09T17:48:46.394Z,54.77
2023-10-09T17:51:13.214Z,54.77
2023-10-09T17:53:40.830Z,54.67
2023-10-09T17:56:11.200Z,54.64
2023-10-09T17:58:38.185Z,54.92
2023-10-09T18:01:09.820Z,54.96
2023-10-09T18:03:39.264Z,54.79
2023-10-09T18:06:06.518Z,54.67
2023-10-09T18:08:33.214Z,54.98
2023-10-09T18:11:01.746Z,54.86
2023-10-09T18:13:29.649Z,54.56
2023-10-09T18:16:13.136Z,54.70
2023-10-09T18:18:51.546Z,54.63
2023-10-09T18:21:21.150Z,54.56
2023-10-09T18:23:49.163Z,54.64
2023-10-09T18:26:16.444Z,54.71
2023-10-09T18:28:45.970Z,54.62
2023-10-09T18:31:14.808Z,54.87
2023-10-09T18:33:44.640Z,54.68
2023-10-09T18:36:12.438Z,54.94
2023-10-09T18:38:39.748Z,54.86
2023-10-09T18:41:11.981Z,54.58
2023-10-09T18:43:43.040Z,54.79
2023-10-09T18:46:12.859Z,54.76
2023-10-09T18:48:40.237Z,55.00
2023-10-09T18:51:08.846Z,55.04
2023-10-09T18:53:35.688Z,55.01
2023-10-09T18:56:02.800Z,54.75
2023-10-09T18:58:29.761Z,54.95
2023-10-09T19:01:03.217Z,55.03
2023-10-09T19:03:30.159Z,54.85
2023-10-09T19:05:57.445Z,54.99
2023-10-09T19:08:24.350Z,54.97
2023-10-09T19:11:00.121Z,54.93
2023-10-09T19:13:27.088Z,55.02
2023-10-09T19:15:53.710Z,54.89
2023-10-09T19:18:20.672Z,55.02
2023-10-09T19:20:47.922Z,55.43
2023-10-09T19:23:14.738Z,55.09
2023-10-09T19:25:44.330Z,55.00
2023-10-09T19:28:13.322Z,55.04
2023-10-09T19:30:40.012Z,55.18
2023-10-09T19:33:07.068Z,54.97
2023-10-09T19:35:41.494Z,55.01
2023-10-09T19:38:09.424Z,55.15
2023-10-09T19:40:36.543Z,54.84
2023-10-09T19:43:03.437Z,55.06
2023-10-09T19:45:31.496Z,55.10
2023-10-09T19:47:58.330Z,54.94
2023-10-09T19:50:26.470Z,55.06
2023-10-09T19:52:53.303Z,54.82
2023-10-09T19:55:22.784Z,54.74
2023-10-09T19:57:49.818Z,54.89
2023-10-09T20:00:22.534Z,54.99
2023-10-09T20:02:55.254Z,54.95
2023-10-09T20:05:23.924Z,55.12
2023-10-09T20:07:50.885Z,55.27
2023-10-09T20:10:19.501Z,55.07
2023-10-09T20:12:46.605Z,55.10
2023-10-09T20:15:14.667Z,55.16
2023-10-09T20:17:44.711Z,54.99
2023-10-09T20:20:13.089Z,55.19
2023-10-09T20:22:40.784Z,55.10
2023-10-09T20:25:18.419Z,55.31
2023-10-09T20:27:44.981Z,55.35
2023-10-09T20:30:15.977Z,55.14
2023-10-09T20:32:43.013Z,55.16
2023-10-09T20:35:13.388Z,55.05
2023-10-09T20:37:41.705Z,55.18
2023-10-09T20:40:19.122Z,55.19
2023-10-09T20:42:47.416Z,55.14
2023-10-09T20:45:14.605Z,55.31
2023-10-09T20:47:49.200Z,55.60
2023-10-09T20:50:16.103Z,55.14
2023-10-09T20:52:47.227Z,55.11
2023-10-09T20:55:20.221Z,55.20
2023-10-09T20:57:47.569Z,55.30
2023-10-09T21:00:20.397Z,55.39
2023-10-09T21:02:48.296Z,55.10
2023-10-09T21:05:16.323Z,55.04
2023-10-09T21:07:47.931Z,55.37
2023-10-09T21:10:15.905Z,55.38
2023-10-09T21:12:43.393Z,55.40
2023-10-09T21:15:11.384Z,55.29
2023-10-09T21:17:47.649Z,55.18
2023-10-09T21:20:18.379Z,55.21
2023-10-09T21:22:51.656Z,55.14
2023-10-09T21:25:27.742Z,55.09
2023-10-09T21:27:57.945Z,55.08
2023-10-09T21:30:25.764Z,55.06
2023-10-09T21:32:55.113Z,55.25
2023-10-09T21:35:23.345Z,55.01
2023-10-09T21:37:53.474Z,55.26
2023-10-09T21:40:32.075Z,55.03
2023-10-09T21:43:00.374Z,55.25
2023-10-09T21:45:28.172Z,55.10
2023-10-09T21:47:58.986Z,55.40
2023-10-09T21:50:27.548Z,55.31
2023-10-09T21:52:59.029Z,55.13
2023-10-09T21:55:28.486Z,55.08
2023-10-09T21:57:56.309Z,55.39
2023-10-09T22:00:32.364Z,55.38
2023-10-09T22:03:09.364Z,55.29
2023-10-09T22:05:43.232Z,55.18
2023-10-09T22:08:11.103Z,55.33
2023-10-09T22:10:38.393Z,55.39
2023-10-09T22:13:08.963Z,55.21
2023-10-09T22:15:36.162Z,55.48
2023-10-09T22:18:11.052Z,55.18
2023-10-09T22:20:38.762Z,55.36
2023-10-09T22:23:11.764Z,55.31
2023-10-09T22:25:38.358Z,55.47
2023-10-09T22:28:10.245Z,55.37
2023-10-09T22:30:37.699Z,55.29
2023-10-09T22:33:06.143Z,55.19
2023-10-09T22:35:34.721Z,55.40
2023-10-09T22:38:09.088Z,55.21
2023-10-09T22:40:39.650Z,55.29
2023-10-09T22:43:10.028Z,55.48
2023-10-09T22:45:40.393Z,55.33
2023-10-09T22:48:07.703Z,55.15
2023-10-09T22:50:37.237Z,55.24
2023-10-09T22:53:25.779Z,55.17
2023-10-09T22:55:53.823Z,55.25
2023-10-09T22:58:27.740Z,55.42
2023-10-09T23:00:56.430Z,55.30
2023-10-09T23:03:29.928Z,55.05
2023-10-09T23:06:34.232Z,55.39
2023-10-09T23:09:15.918Z,55.09
2023-10-09T23:11:55.506Z,54.87
2023-10-09T23:14:28.772Z,55.30
2023-10-09T23:17:07.637Z,54.81
2023-10-09T23:19:39.891Z,55.03
2023-10-09T23:22:08.087Z,55.07
2023-10-09T23:24:54.808Z,55.10
2023-10-09T23:27:37.931Z,55.05
2023-10-09T23:30:15.372Z,55.06
2023-10-09T23:32:53.276Z,55.15
2023-10-09T23:35:22.521Z,55.01
2023-10-09T23:38:08.916Z,55.02
2023-10-09T23:40:42.058Z,55.16
2023-10-09T23:43:34.096Z,55.21
2023-10-09T23:46:01.551Z,55.09
2023-10-09T23:48:29.162Z,54.85
2023-10-09T23:51:05.000Z,54.87
2023-10-09T23:53:36.687Z,55.03
2023-10-09T23:56:11.333Z,54.92
2023-10-09T23:58:41.984Z,55.12
